Time;durP1;ratioP1;P1;durP2;ratioP2;P2;SDS_P1;SDS_P2;PMS_P1;PMS_P2;Temp;Humidity;BMP_temperature;BMP_pressure;BME280_temperature;BME280_humidity;BME280_pressure;Samples;Min_cycle;Max_cycle;Signal;HPM_P1;HPM_P2
2023/06/29 00:01:02;;;;;;;6.10;5.60;;;;;;;15.79;100.00;94791.28;5090373;28;20193;-44
2023/06/29 00:03:29;;;;;;;6.17;5.57;;;;;;;15.82;100.00;94789.34;5108094;28;20196;-44
2023/06/29 00:05:56;;;;;;;5.70;5.07;;;;;;;15.81;100.00;94785.97;5109945;28;20286;-43
2023/06/29 00:08:25;;;;;;;6.40;5.73;;;;;;;15.87;100.00;94802.53;5110123;28;20217;-44
2023/06/29 00:10:53;;;;;;;6.30;5.70;;;;;;;15.84;100.00;94802.84;5110317;28;20188;-43
2023/06/29 00:13:22;;;;;;;6.30;5.70;;;;;;;15.78;100.00;94786.28;5110584;28;20718;-42
2023/06/29 00:15:49;;;;;;;5.80;5.30;;;;;;;15.66;100.00;94765.22;5091963;28;20580;-44
2023/06/29 00:18:16;;;;;;;6.70;6.10;;;;;;;15.83;100.00;94791.75;5110397;28;20228;-45
2023/06/29 00:20:43;;;;;;;5.90;5.40;;;;;;;15.79;100.00;94785.31;5110851;28;20188;-45
2023/06/29 00:23:10;;;;;;;5.97;5.47;;;;;;;15.79;100.00;94793.03;5110977;28;20288;-44
2023/06/29 00:25:39;;;;;;;6.87;5.53;;;;;;;15.78;100.00;94784.50;5110212;28;20204;-42
2023/06/29 00:28:06;;;;;;;6.40;5.80;;;;;;;15.78;100.00;94775.97;5110213;28;20249;-44
2023/06/29 00:30:33;;;;;;;6.03;5.53;;;;;;;15.80;100.00;94772.28;5110109;28;20185;-43
2023/06/29 00:33:00;;;;;;;6.40;5.80;;;;;;;15.76;100.00;94771.00;5110282;28;20195;-44
2023/06/29 00:35:26;;;;;;;5.77;5.27;;;;;;;15.72;100.00;94762.00;5110292;28;20196;-44
2023/06/29 00:37:53;;;;;;;6.77;5.13;;;;;;;15.75;100.00;94761.63;5110733;28;20188;-44
2023/06/29 00:40:20;;;;;;;7.30;6.43;;;;;;;15.74;100.00;94764.38;5110412;28;20185;-44
2023/06/29 00:42:48;;;;;;;5.83;5.33;;;;;;;15.75;100.00;94771.94;5110043;28;20549;-43
2023/06/29 00:45:16;;;;;;;5.90;5.30;;;;;;;15.74;100.00;94770.34;5110279;28;20192;-43
2023/06/29 00:47:43;;;;;;;6.00;5.50;;;;;;;15.77;100.00;94775.19;5110216;28;20235;-44
2023/06/29 00:50:11;;;;;;;5.70;5.20;;;;;;;15.78;100.00;94778.56;5110346;28;20268;-45
2023/06/29 00:52:38;;;;;;;5.50;4.90;;;;;;;15.80;100.00;94774.84;5109767;28;20652;-43
2023/06/29 00:55:05;;;;;;;5.80;5.30;;;;;;;15.83;100.00;94783.22;5110200;28;20197;-43
2023/06/29 00:57:33;;;;;;;5.77;5.27;;;;;;;15.74;100.00;94783.22;5109897;28;20185;-43
2023/06/29 01:00:05;;;;;;;5.40;4.90;;;;;;;15.78;100.00;94784.50;5092100;28;20232;-44
2023/06/29 01:02:35;;;;;;;6.33;5.63;;;;;;;15.82;100.00;94784.97;5110034;28;20195;-44
2023/06/29 01:05:03;;;;;;;6.07;5.57;;;;;;;15.64;100.00;94754.28;5109858;28;20690;-45
2023/06/29 01:07:36;;;;;;;6.33;5.73;;;;;;;15.81;100.00;94780.81;5109625;28;20664;-44
2023/06/29 01:10:04;;;;;;;7.30;5.37;;;;;;;15.66;100.00;94764.41;5109911;28;20185;-45
2023/06/29 01:12:32;;;;;;;5.70;4.80;;;;;;;15.29;100.00;94711.69;5109940;28;20189;-44
2023/06/29 01:15:01;;;;;;;5.73;5.13;;;;;;;15.71;100.00;94778.41;5109655;28;20230;-44
2023/06/29 01:17:31;;;;;;;5.60;5.10;;;;;;;15.56;100.00;94765.38;5109810;28;20181;-43
2023/06/29 01:20:00;;;;;;;8.03;5.53;;;;;;;15.69;100.00;94780.34;5113851;28;20280;-45
2023/06/29 01:22:31;;;;;;;5.90;5.30;;;;;;;15.68;100.00;94778.75;5113944;28;20182;-45
2023/06/29 01:25:00;;;;;;;5.73;5.23;;;;;;;15.69;100.00;94782.13;5114551;28;20196;-46
2023/06/29 01:27:27;;;;;;;7.63;5.53;;;;;;;15.66;100.00;94787.63;5113625;28;20258;-44
2023/06/29 01:29:55;;;;;;;5.70;5.20;;;;;;;15.69;100.00;94785.50;5113699;28;20181;-42
2023/06/29 01:32:33;;;;;;;6.83;5.30;;;;;;;15.67;100.00;94779.72;5113980;28;20185;-43
2023/06/29 01:35:02;;;;;;;6.50;5.90;;;;;;;15.60;100.00;94776.19;5114167;28;20633;-43
2023/06/29 01:37:35;;;;;;;7.03;6.43;;;;;;;15.60;100.00;94780.53;5113751;28;20612;-42
2023/06/29 01:40:08;;;;;;;6.23;5.63;;;;;;;15.60;100.00;94781.34;5113738;28;20192;-44
2023/06/29 01:42:36;;;;;;;6.33;5.73;;;;;;;15.55;100.00;94781.84;5113179;28;20644;-43
2023/06/29 01:45:05;;;;;;;6.33;5.73;;;;;;;15.34;100.00;94752.41;5113706;28;20188;-45
2023/06/29 01:47:33;;;;;;;6.70;6.07;;;;;;;15.45;100.00;94775.25;5113596;28;20219;-42
2023/06/29 01:50:01;;;;;;;6.67;6.00;;;;;;;15.42;100.00;94778.16;5113406;28;20204;-44
2023/06/29 01:52:30;;;;;;;6.37;5.80;;;;;;;15.29;100.00;94763.22;5113093;28;20192;-43
2023/06/29 01:54:57;;;;;;;7.77;6.17;;;;;;;15.28;100.00;94769.31;5112992;28;20514;-43
2023/06/29 01:57:26;;;;;;;7.23;6.53;;;;;;;15.21;100.00;94776.13;5113344;28;20233;-44
2023/06/29 01:59:53;;;;;;;7.23;6.20;;;;;;;15.11;100.00;94771.16;5113071;28;20607;-42
2023/06/29 02:02:19;;;;;;;10.17;7.17;;;;;;;15.07;100.00;94772.44;5113077;28;20184;-45
2023/06/29 02:04:46;;;;;;;6.63;6.00;;;;;;;15.03;100.00;94777.09;5112955;28;20197;-44
2023/06/29 02:07:13;;;;;;;7.47;6.77;;;;;;;15.00;100.00;94781.78;5112816;28;20224;-43
2023/06/29 02:09:40;;;;;;;7.63;6.83;;;;;;;14.95;100.00;94787.41;5112805;28;20200;-43
2023/06/29 02:12:08;;;;;;;8.60;7.27;;;;;;;14.91;100.00;94787.91;5112989;28;20652;-44
2023/06/29 02:14:36;;;;;;;8.47;7.10;;;;;;;14.86;100.00;94788.38;5112763;28;20204;-45
2023/06/29 02:17:03;;;;;;;7.73;7.03;;;;;;;14.84;100.00;94782.56;5112986;28;20683;-42
2023/06/29 02:19:30;;;;;;;8.10;7.30;;;;;;;14.79;100.00;94777.91;5112757;28;20189;-45
2023/06/29 02:21:56;;;;;;;8.97;7.10;;;;;;;14.80;100.00;94776.94;5112901;28;20185;-43
2023/06/29 02:24:24;;;;;;;9.37;7.30;;;;;;;14.81;100.00;94772.63;5112858;28;20181;-44
2023/06/29 02:26:50;;;;;;;7.53;6.70;;;;;;;14.64;100.00;94746.06;5112514;28;20247;-44
2023/06/29 02:29:17;;;;;;;7.07;6.47;;;;;;;14.76;100.00;94773.06;5071556;28;20546;-46
2023/06/29 02:31:45;;;;;;;9.00;7.50;;;;;;;14.70;100.00;94771.16;5070482;28;20603;-44
2023/06/29 02:34:12;;;;;;;8.10;7.33;;;;;;;14.69;100.00;94773.91;5071964;28;20190;-42
2023/06/29 02:36:39;;;;;;;8.47;6.90;;;;;;;14.65;100.00;94778.56;5072149;28;20190;-43
2023/06/29 02:39:06;;;;;;;7.40;6.77;;;;;;;14.64;100.00;94776.16;5071742;28;20271;-43
2023/06/29 02:41:32;;;;;;;8.33;7.53;;;;;;;14.65;100.00;94770.84;5071995;28;20190;-45
2023/06/29 02:43:59;;;;;;;8.47;6.70;;;;;;;14.65;100.00;94770.84;5071704;28;20205;-43
2023/06/29 02:46:26;;;;;;;11.40;7.00;;;;;;;14.64;100.00;94771.81;5071571;28;20202;-43
2023/06/29 02:48:54;;;;;;;8.00;7.17;;;;;;;14.62;100.00;94768.56;5071629;28;20186;-44
2023/06/29 02:51:21;;;;;;;7.67;6.83;;;;;;;14.42;100.00;94747.47;5071568;28;20539;-44
2023/06/29 02:53:47;;;;;;;8.23;6.70;;;;;;;14.62;100.00;94783.22;5071401;28;20638;-45
2023/06/29 02:56:14;;;;;;;8.00;7.20;;;;;;;14.62;100.00;94778.88;5071086;28;20623;-46
2023/06/29 02:58:41;;;;;;;7.67;6.87;;;;;;;14.61;100.00;94781.63;5071591;28;20252;-43
2023/06/29 03:01:08;;;;;;;9.57;7.60;;;;;;;14.58;100.00;94784.50;5071532;28;20198;-42
2023/06/29 03:03:35;;;;;;;9.70;7.10;;;;;;;14.59;100.00;94786.91;5071484;28;20537;-43
2023/06/29 03:06:03;;;;;;;8.73;7.83;;;;;;;14.63;100.00;94783.06;5071158;28;20190;-44
2023/06/29 03:08:30;;;;;;;9.17;7.20;;;;;;;14.62;100.00;94798.66;5071576;28;20215;-43
2023/06/29 03:10:57;;;;;;;8.07;7.03;;;;;;;14.63;100.00;94795.13;5071320;28;20198;-43
2023/06/29 03:13:23;;;;;;;8.13;7.10;;;;;;;14.63;100.00;94795.13;5071140;28;20227;-43
2023/06/29 03:15:50;;;;;;;9.03;7.77;;;;;;;14.60;100.00;94795.47;5070932;28;20585;-44
2023/06/29 03:18:17;;;;;;;8.80;7.90;;;;;;;14.61;100.00;94797.06;5071033;28;20202;-45
2023/06/29 03:20:44;;;;;;;7.70;7.00;;;;;;;14.64;100.00;94794.97;5071368;28;20251;-45
2023/06/29 03:23:12;;;;;;;9.93;7.70;;;;;;;14.64;100.00;94797.56;5071212;28;20270;-45
2023/06/29 03:25:39;;;;;;;7.93;7.13;;;;;;;14.68;100.00;94798.00;5071013;28;20232;-42
2023/06/29 03:28:06;;;;;;;8.83;7.63;;;;;;;14.76;100.00;94800.59;5091684;28;20714;-46
2023/06/29 03:30:32;;;;;;;9.43;8.00;;;;;;;14.78;100.00;94796.09;5111856;28;20256;-44
2023/06/29 03:33:01;;;;;;;10.50;8.77;;;;;;;14.71;100.00;94766.81;5111479;28;20196;-44
2023/06/29 03:35:27;;;;;;;8.87;7.97;;;;;;;14.90;100.00;94799.16;5111873;28;20276;-44
2023/06/29 03:37:54;;;;;;;9.03;8.20;;;;;;;14.98;100.00;94806.88;5111206;28;20673;-44
2023/06/29 03:40:22;;;;;;;9.77;8.77;;;;;;;15.06;100.00;94799.13;5111627;28;20199;-44
2023/06/29 03:42:49;;;;;;;9.40;8.47;;;;;;;15.12;100.00;94801.09;5111152;28;20619;-45
2023/06/29 03:45:17;;;;;;;10.07;9.07;;;;;;;15.03;100.00;94784.84;5111330;28;20262;-45
2023/06/29 03:47:45;;;;;;;9.53;8.60;;;;;;;15.19;100.00;94809.75;5111185;28;20681;-45
2023/06/29 03:50:12;;;;;;;9.27;7.87;;;;;;;15.22;100.00;94806.06;5110650;28;20204;-44
2023/06/29 03:52:40;;;;;;;9.17;7.87;;;;;;;15.20;100.00;94801.06;5111651;28;20181;-43
2023/06/29 03:55:08;;;;;;;9.33;8.43;;;;;;;15.28;100.00;94807.97;5110640;28;20606;-45
2023/06/29 03:57:36;;;;;;;9.20;8.30;;;;;;;15.38;100.00;94818.13;5093485;28;20185;-44
2023/06/29 04:00:05;;;;;;;8.50;7.70;;;;;;;15.48;100.00;94813.56;5110586;28;20189;-44
2023/06/29 04:02:36;;;;;;;11.20;9.57;;;;;;;15.54;100.00;94818.06;5110965;28;20254;-46
2023/06/29 04:05:03;;;;;;;10.53;9.43;;;;;;;15.50;100.00;94806.47;5092907;28;20181;-44
2023/06/29 04:07:32;;;;;;;11.30;9.40;;;;;;;15.68;100.00;94817.44;5110507;28;20341;-43
2023/06/29 04:10:00;;;;;;;10.13;9.10;;;;;;;15.72;99.58;94817.91;5092749;28;20665;-42
2023/06/29 04:12:26;;;;;;;8.50;7.70;;;;;;;15.84;97.54;94828.66;5110604;28;20282;-43
2023/06/29 04:14:55;;;;;;;13.57;9.10;;;;;;;15.84;98.34;94826.06;5110427;28;20181;-42
2023/06/29 04:17:23;;;;;;;10.93;8.60;;;;;;;15.37;98.42;94741.75;5110590;28;20585;-42
2023/06/29 04:19:50;;;;;;;9.60;8.70;;;;;;;15.95;98.22;94823.13;5092168;28;20189;-43
2023/06/29 04:22:17;;;;;;;10.03;8.20;;;;;;;16.02;97.33;94826.66;5110807;28;20196;-43
2023/06/29 04:24:45;;;;;;;9.47;8.57;;;;;;;16.11;96.78;94824.84;5110672;28;20185;-44
2023/06/29 04:27:12;;;;;;;9.47;8.47;;;;;;;16.19;96.35;94817.88;5110350;28;20243;-44
2023/06/29 04:29:39;;;;;;;9.60;8.70;;;;;;;16.28;95.45;94824.59;5110340;28;20189;-44
2023/06/29 04:32:12;;;;;;;10.07;8.97;;;;;;;16.40;94.08;94825.00;5110348;28;20656;-46
2023/06/29 04:34:40;;;;;;;9.17;8.27;;;;;;;16.45;92.93;94809.84;5092301;28;20576;-45
2023/06/29 04:37:07;;;;;;;8.93;8.03;;;;;;;16.57;91.58;94825.72;5110101;28;20208;-44
2023/06/29 04:39:34;;;;;;;11.57;9.57;;;;;;;16.59;92.48;94805.72;5110385;28;20669;-44
2023/06/29 04:42:05;;;;;;;9.17;8.37;;;;;;;16.79;91.62;94821.56;5109925;28;20182;-42
2023/06/29 04:44:34;;;;;;;11.37;8.80;;;;;;;16.76;91.23;94817.56;5110590;28;20639;-43
2023/06/29 04:47:02;;;;;;;10.57;9.57;;;;;;;16.79;91.92;94824.94;5109836;28;20188;-43
2023/06/29 04:49:36;;;;;;;10.67;9.63;;;;;;;16.72;91.25;94802.56;5110245;28;20195;-44
2023/06/29 04:52:04;;;;;;;10.37;8.67;;;;;;;16.94;90.71;94822.44;5110144;28;20203;-44
2023/06/29 04:54:31;;;;;;;11.90;9.83;;;;;;;16.90;90.97;94805.66;5091815;28;20740;-43
2023/06/29 04:56:59;;;;;;;11.07;9.20;;;;;;;17.09;88.35;94826.81;5109877;28;20181;-43
2023/06/29 04:59:28;;;;;;;10.00;9.03;;;;;;;16.99;87.56;94806.41;5110218;28;20654;-44
2023/06/29 05:01:57;;;;;;;10.60;9.50;;;;;;;17.12;88.16;94835.03;5109803;28;20674;-43
2023/06/29 05:04:25;;;;;;;13.10;9.43;;;;;;;16.87;89.44;94787.13;5110258;28;20196;-42
2023/06/29 05:06:53;;;;;;;11.70;9.53;;;;;;;17.14;88.12;94827.09;5109859;28;20274;-42
2023/06/29 05:09:20;;;;;;;9.90;9.00;;;;;;;17.33;87.92;94839.53;5110051;28;20185;-43
2023/06/29 05:11:47;;;;;;;11.40;9.70;;;;;;;17.52;85.84;94845.97;5110101;28;20181;-42
2023/06/29 05:14:14;;;;;;;11.73;8.80;;;;;;;17.69;84.80;94847.44;5109764;28;20196;-46
2023/06/29 05:16:41;;;;;;;9.97;8.97;;;;;;;17.93;85.43;94848.19;5110572;28;20526;-45
2023/06/29 05:19:08;;;;;;;14.87;9.37;;;;;;;18.23;84.97;94854.16;5110666;28;20189;-45
2023/06/29 05:21:35;;;;;;;9.97;8.93;;;;;;;18.47;84.71;94846.06;5110092;28;20483;-43
2023/06/29 05:24:04;;;;;;;9.67;8.27;;;;;;;18.86;80.17;94847.47;5110388;28;20193;-45
2023/06/29 05:26:30;;;;;;;11.00;9.00;;;;;;;19.35;77.95;94853.72;5110336;28;20192;-46
2023/06/29 05:28:58;;;;;;;11.07;8.63;;;;;;;19.72;75.64;94852.59;5109098;28;20240;-42
2023/06/29 05:31:25;;;;;;;8.93;7.90;;;;;;;19.89;74.19;94855.69;5109949;28;20189;-47
2023/06/29 05:33:51;;;;;;;10.47;8.60;;;;;;;19.64;73.12;94799.03;5109922;28;20185;-43
2023/06/29 05:36:18;;;;;;;9.60;8.13;;;;;;;20.22;73.25;94855.88;5109630;28;20189;-45
2023/06/29 05:38:45;;;;;;;10.38;9.32;;;;;;;20.47;71.99;94854.38;5109495;28;20190;-43
2023/06/29 05:41:13;;;;;;;9.07;8.17;;;;;;;20.63;70.66;94858.44;5109673;28;20193;-45
2023/06/29 05:43:40;;;;;;;9.33;8.30;;;;;;;20.81;70.32;94855.28;5109795;28;20185;-45
2023/06/29 05:46:07;;;;;;;10.45;7.80;;;;;;;20.94;70.39;94849.31;5109871;28;20196;-45
2023/06/29 05:48:33;;;;;;;8.68;7.65;;;;;;;21.30;67.89;94851.56;5109709;28;20228;-44
2023/06/29 05:51:00;;;;;;;10.15;7.18;;;;;;;21.45;69.16;94856.56;5109501;28;20182;-45
2023/06/29 05:53:27;;;;;;;8.27;7.43;;;;;;;21.76;66.47;94856.78;5109245;28;20701;-44
2023/06/29 05:55:54;;;;;;;8.10;7.15;;;;;;;21.96;65.26;94851.50;5109666;28;20227;-46
2023/06/29 05:58:23;;;;;;;8.35;7.35;;;;;;;21.70;65.00;94815.91;5109626;28;20192;-45
2023/06/29 06:00:50;;;;;;;9.27;8.25;;;;;;;22.04;66.63;94858.31;5109854;28;20241;-46
2023/06/29 06:03:17;;;;;;;8.77;6.65;;;;;;;22.16;64.97;94838.47;5109820;28;20223;-47
2023/06/29 06:05:44;;;;;;;7.75;7.00;;;;;;;22.27;62.68;94832.59;5111258;28;20186;-43
2023/06/29 06:08:11;;;;;;;12.23;7.05;;;;;;;22.64;63.33;94856.31;5113285;28;20238;-45
2023/06/29 06:10:38;;;;;;;8.15;7.00;;;;;;;22.85;62.74;94860.41;5112790;28;20197;-45
2023/06/29 06:13:05;;;;;;;9.13;6.90;;;;;;;23.02;63.51;94852.91;5113044;28;20292;-47
2023/06/29 06:15:35;;;;;;;7.57;6.95;;;;;;;23.27;62.32;94864.19;5113057;28;20610;-46
2023/06/29 06:18:01;;;;;;;7.47;6.78;;;;;;;23.40;61.07;94860.69;5113278;28;20177;-44
2023/06/29 06:20:28;;;;;;;8.05;6.82;;;;;;;23.33;60.30;94861.72;5112530;28;20196;-46
2023/06/29 06:22:55;;;;;;;6.65;5.93;;;;;;;23.32;61.56;94852.31;5113075;28;20193;-44
2023/06/29 06:25:22;;;;;;;6.75;6.15;;;;;;;23.56;60.56;94851.50;5112998;28;20192;-47
2023/06/29 06:27:48;;;;;;;7.65;6.30;;;;;;;23.78;58.72;94857.94;5113134;28;20244;-43
2023/06/29 06:30:15;;;;;;;5.85;5.35;;;;;;;23.90;57.71;94865.88;5112426;28;20672;-46
2023/06/29 06:32:44;;;;;;;7.15;6.10;;;;;;;23.87;57.68;94855.06;5112881;28;20635;-44
2023/06/29 06:35:12;;;;;;;6.82;6.13;;;;;;;23.87;58.84;94861.06;5112783;28;20271;-45
2023/06/29 06:37:39;;;;;;;7.38;5.82;;;;;;;23.93;58.22;94859.44;5113023;28;20185;-45
2023/06/29 06:40:08;;;;;;;7.13;6.20;;;;;;;23.99;59.78;94861.16;5112826;28;20185;-44
2023/06/29 06:42:35;;;;;;;7.72;5.15;;;;;;;24.14;58.58;94858.22;5112318;28;20189;-45
2023/06/29 06:45:03;;;;;;;5.78;5.28;;;;;;;24.33;57.61;94867.63;5112756;28;20267;-46
2023/06/29 06:47:31;;;;;;;5.53;5.03;;;;;;;24.49;56.00;94864.47;5112512;28;20257;-47
2023/06/29 06:49:59;;;;;;;6.75;5.28;;;;;;;24.56;54.77;94868.81;5112496;28;20235;-47
2023/06/29 06:52:27;;;;;;;5.95;5.45;;;;;;;24.39;55.44;94860.75;5112176;28;20640;-46
2023/06/29 06:54:54;;;;;;;7.45;5.95;;;;;;;24.26;54.48;94848.59;5112571;28;20242;-45
2023/06/29 06:57:21;;;;;;;6.57;5.85;;;;;;;24.19;55.26;94843.47;5112297;28;20257;-45
2023/06/29 06:59:48;;;;;;;6.35;5.75;;;;;;;24.32;56.14;94855.59;5112389;28;20204;-47
2023/06/29 07:02:14;;;;;;;6.40;5.80;;;;;;;24.57;55.32;94855.53;5111565;28;20193;-46
2023/06/29 07:04:41;;;;;;;5.65;5.18;;;;;;;24.80;54.31;94861.88;5112408;28;20199;-46
2023/06/29 07:07:10;;;;;;;5.60;5.10;;;;;;;24.72;54.09;94852.50;5111817;28;20185;-48
2023/06/29 07:09:37;;;;;;;5.88;5.38;;;;;;;24.44;54.38;94858.31;5112235;28;20205;-45
2023/06/29 07:12:04;;;;;;;6.32;5.72;;;;;;;24.19;56.62;94856.53;5111740;28;20197;-45
2023/06/29 07:14:31;;;;;;;7.15;5.20;;;;;;;24.20;55.63;94852.09;5112428;28;20185;-47
2023/06/29 07:16:58;;;;;;;5.30;4.80;;;;;;;24.35;56.42;94856.94;5112324;28;20254;-45
2023/06/29 07:19:25;;;;;;;8.38;5.07;;;;;;;24.48;54.40;94859.44;5111919;28;20189;-45
2023/06/29 07:21:52;;;;;;;6.53;5.43;;;;;;;24.44;55.35;94851.25;5112417;28;20366;-45
2023/06/29 07:24:21;;;;;;;5.57;5.07;;;;;;;24.40;55.64;94855.31;5111720;28;20182;-44
2023/06/29 07:26:48;;;;;;;5.43;4.90;;;;;;;24.44;55.45;94843.41;5111828;28;20193;-45
2023/06/29 07:29:14;;;;;;;8.52;5.03;;;;;;;24.66;55.73;94853.41;5111162;28;20263;-45
2023/06/29 07:31:41;;;;;;;5.82;4.95;;;;;;;24.66;55.79;94862.03;5111949;28;20189;-44
2023/06/29 07:34:08;;;;;;;5.30;4.85;;;;;;;24.66;56.75;94861.25;5111432;28;20185;-47
2023/06/29 07:36:35;;;;;;;6.00;5.28;;;;;;;24.87;56.44;94860.78;5111699;28;20222;-46
2023/06/29 07:39:03;;;;;;;5.30;4.65;;;;;;;25.06;54.20;94863.31;5111246;28;20193;-44
2023/06/29 07:41:32;;;;;;;5.00;4.53;;;;;;;25.23;53.17;94856.44;5111579;28;20254;-46
2023/06/29 07:43:59;;;;;;;5.30;4.78;;;;;;;25.17;52.92;94842.44;5111097;28;20185;-44
2023/06/29 07:46:26;;;;;;;4.47;4.05;;;;;;;25.16;53.34;94848.69;5111399;28;20185;-46
2023/06/29 07:48:54;;;;;;;4.40;4.00;;;;;;;25.36;52.22;94850.22;5111248;28;20224;-44
2023/06/29 07:51:21;;;;;;;5.50;4.13;;;;;;;25.50;50.75;94844.53;5111193;28;20276;-47
2023/06/29 07:53:50;;;;;;;6.20;4.38;;;;;;;25.49;50.74;94848.19;5111060;28;20193;-47
2023/06/29 07:56:16;;;;;;;3.72;3.42;;;;;;;25.34;50.82;94847.00;5111310;28;20211;-45
2023/06/29 07:58:45;;;;;;;4.60;3.55;;;;;;;25.05;50.56;94849.44;5111206;28;20193;-46
2023/06/29 08:01:11;;;;;;;3.72;3.42;;;;;;;24.78;51.32;94849.81;5110894;28;20193;-45
2023/06/29 08:03:38;;;;;;;4.00;3.60;;;;;;;24.80;53.56;94841.75;5111353;28;20246;-46
2023/06/29 08:06:05;;;;;;;7.80;4.07;;;;;;;25.02;54.20;94847.25;5110900;28;20242;-46
2023/06/29 08:08:32;;;;;;;4.93;3.67;;;;;;;25.18;53.86;94846.66;5111107;28;20213;-44
2023/06/29 08:10:59;;;;;;;3.92;3.55;;;;;;;24.79;53.70;94832.28;5110583;28;20646;-43
2023/06/29 08:13:26;;;;;;;3.90;3.50;;;;;;;24.72;55.17;94844.66;5111182;28;20181;-45
2023/06/29 08:15:55;;;;;;;4.53;3.45;;;;;;;24.95;54.71;94846.56;5111023;28;20196;-48
2023/06/29 08:18:21;;;;;;;4.22;3.78;;;;;;;24.97;53.12;94831.44;5110679;28;20265;-45
2023/06/29 08:20:48;;;;;;;4.28;3.42;;;;;;;25.11;54.72;94845.94;5110722;28;20192;-44
2023/06/29 08:23:15;;;;;;;5.70;3.72;;;;;;;25.12;53.84;94851.97;5110611;28;20647;-46
2023/06/29 08:25:42;;;;;;;5.70;3.50;;;;;;;25.17;53.39;94841.63;5110397;28;20197;-46
2023/06/29 08:28:09;;;;;;;4.72;3.50;;;;;;;25.31;53.61;94850.88;5109511;28;20224;-44
2023/06/29 08:30:36;;;;;;;4.32;3.33;;;;;;;25.21;52.78;94848.81;5110444;28;20889;-45
2023/06/29 08:33:04;;;;;;;4.78;3.58;;;;;;;25.23;52.47;94843.38;5110703;28;20620;-44
2023/06/29 08:35:31;;;;;;;6.40;3.30;;;;;;;25.27;52.42;94847.91;5110714;28;20192;-46
2023/06/29 08:37:58;;;;;;;3.70;3.40;;;;;;;25.29;52.20;94845.06;5110178;28;20197;-44
2023/06/29 08:40:27;;;;;;;3.30;3.00;;;;;;;25.22;51.83;94844.41;5110708;28;20248;-45
2023/06/29 08:42:54;;;;;;;4.65;3.42;;;;;;;25.23;51.74;94835.50;5110184;28;20185;-45
2023/06/29 08:45:21;;;;;;;3.78;3.28;;;;;;;25.21;51.03;94837.53;5110808;28;20196;-47
2023/06/29 08:47:51;;;;;;;4.35;3.53;;;;;;;25.05;50.89;94831.13;5110452;28;20200;-46
2023/06/29 08:50:24;;;;;;;3.53;3.00;;;;;;;25.03;52.28;94828.72;5110362;28;20254;-46
2023/06/29 08:52:53;;;;;;;6.35;3.67;;;;;;;24.94;50.34;94831.88;5110227;28;20228;-46
2023/06/29 08:55:20;;;;;;;3.13;2.70;;;;;;;24.76;51.01;94835.34;5109974;28;20185;-44
2023/06/29 08:57:47;;;;;;;6.10;3.30;;;;;;;24.72;52.38;94826.34;5110387;28;20181;-47
2023/06/29 09:00:16;;;;;;;3.72;2.60;;;;;;;24.92;51.94;94831.31;5110183;28;20197;-43
2023/06/29 09:02:45;;;;;;;3.67;3.00;;;;;;;24.96;51.96;94835.88;5110395;28;20189;-44
2023/06/29 09:05:14;;;;;;;4.50;2.88;;;;;;;25.03;52.86;94826.09;5109805;28;20185;-47
2023/06/29 09:07:43;;;;;;;3.55;2.97;;;;;;;25.22;53.24;94818.22;5110121;28;20216;-46
2023/06/29 09:10:11;;;;;;;3.60;3.30;;;;;;;25.43;51.42;94819.47;5109952;28;20224;-46
2023/06/29 09:12:38;;;;;;;3.03;2.80;;;;;;;25.49;51.09;94815.94;5110391;28;20204;-45
2023/06/29 09:15:10;;;;;;;3.15;2.55;;;;;;;25.49;51.58;94818.56;5110233;28;20216;-46
2023/06/29 09:17:37;;;;;;;3.35;2.90;;;;;;;25.29;50.98;94808.41;5110153;28;20237;-46
2023/06/29 09:20:13;;;;;;;2.83;2.63;;;;;;;25.11;51.62;94813.75;5110021;28;20201;-44
2023/06/29 09:22:40;;;;;;;2.63;2.40;;;;;;;25.13;50.57;94809.91;5109335;28;20196;-44
2023/06/29 09:25:10;;;;;;;5.60;2.83;;;;;;;25.08;52.15;94804.50;5110378;28;20184;-44
2023/06/29 09:27:38;;;;;;;3.20;2.70;;;;;;;25.18;51.04;94803.97;5109619;28;20768;-45
2023/06/29 09:30:07;;;;;;;3.08;2.65;;;;;;;25.18;50.66;94806.59;5110063;28;20220;-47
2023/06/29 09:32:38;;;;;;;2.50;2.30;;;;;;;25.08;51.71;94809.75;5091925;28;20613;-46
2023/06/29 09:35:09;;;;;;;3.38;2.35;;;;;;;25.06;51.49;94805.75;5110277;28;20258;-45
2023/06/29 09:37:37;;;;;;;3.03;2.47;;;;;;;25.01;51.26;94801.97;5110275;28;20185;-45
2023/06/29 09:40:09;;;;;;;3.15;2.85;;;;;;;25.02;51.39;94802.78;5112774;28;20209;-45
2023/06/29 09:42:38;;;;;;;2.83;2.38;;;;;;;25.09;52.06;94797.47;5113610;28;20641;-46
2023/06/29 09:45:11;;;;;;;4.00;2.78;;;;;;;25.05;49.33;94801.53;5113541;28;20528;-45
2023/06/29 09:47:40;;;;;;;2.90;2.70;;;;;;;24.68;50.65;94799.84;5113500;28;20627;-45
2023/06/29 09:50:18;;;;;;;3.38;2.50;;;;;;;24.47;52.33;94806.34;5095263;28;20221;-42
2023/06/29 09:52:50;;;;;;;6.20;2.58;;;;;;;24.35;53.35;94812.50;5113206;28;20245;-46
2023/06/29 09:55:18;;;;;;;2.28;2.08;;;;;;;24.45;49.27;94803.16;5113422;28;20189;-44
2023/06/29 09:57:49;;;;;;;2.88;2.30;;;;;;;24.38;50.52;94806.88;5113369;28;20185;-45
2023/06/29 10:00:17;;;;;;;3.85;2.70;;;;;;;24.24;51.36;94801.78;5113623;28;20686;-46
2023/06/29 10:02:45;;;;;;;3.13;2.55;;;;;;;24.20;52.29;94805.84;5113232;28;20188;-45
2023/06/29 10:05:12;;;;;;;4.35;2.78;;;;;;;24.22;52.25;94805.63;5112763;28;20219;-46
2023/06/29 10:07:42;;;;;;;6.25;2.72;;;;;;;24.14;52.46;94798.91;5113403;28;20197;-45
2023/06/29 10:10:13;;;;;;;2.95;2.67;;;;;;;24.22;51.41;94788.16;5094846;28;20240;-44
2023/06/29 10:12:40;;;;;;;6.43;2.80;;;;;;;24.33;52.74;94796.25;5113400;28;20193;-43
2023/06/29 10:15:12;;;;;;;2.78;2.53;;;;;;;24.43;50.79;94788.72;5113409;28;20225;-43
2023/06/29 10:17:47;;;;;;;2.70;2.42;;;;;;;24.41;50.49;94794.16;5112749;28;20192;-44
2023/06/29 10:20:17;;;;;;;2.47;2.28;;;;;;;24.57;50.97;94781.47;5113119;28;20194;-47
2023/06/29 10:22:45;;;;;;;2.65;2.22;;;;;;;24.62;49.34;94779.81;5113096;28;20208;-42
2023/06/29 10:25:17;;;;;;;2.65;2.45;;;;;;;24.53;49.96;94771.50;5113055;28;20222;-44
2023/06/29 10:27:45;;;;;;;2.70;2.50;;;;;;;24.46;51.29;94775.19;5078245;28;20220;-45
2023/06/29 10:30:19;;;;;;;1.90;1.80;;;;;;;24.56;51.15;94769.44;5112979;28;20259;-44
2023/06/29 10:32:49;;;;;;;2.45;2.25;;;;;;;24.65;50.35;94771.50;5112692;28;20184;-44
2023/06/29 10:35:16;;;;;;;2.22;2.10;;;;;;;24.68;50.19;94767.66;5112638;28;20610;-46
2023/06/29 10:37:44;;;;;;;2.35;2.20;;;;;;;24.60;49.88;94763.53;5112522;28;20193;-46
2023/06/29 10:40:15;;;;;;;3.58;2.60;;;;;;;24.55;51.13;94757.38;5112685;28;20208;-44
2023/06/29 10:42:57;;;;;;;3.83;2.40;;;;;;;24.62;50.08;94763.31;5112456;28;20195;-46
2023/06/29 10:45:35;;;;;;;2.95;2.20;;;;;;;24.63;50.22;94760.47;5112506;28;20208;-44
2023/06/29 10:48:08;;;;;;;3.72;2.72;;;;;;;24.75;49.41;94765.75;5112339;28;20232;-45
2023/06/29 10:50:40;;;;;;;2.60;2.40;;;;;;;24.74;48.72;94751.88;5111590;28;20316;-43
2023/06/29 10:53:10;;;;;;;3.40;3.03;;;;;;;24.64;49.18;94756.84;5112307;28;20196;-46
2023/06/29 10:55:51;;;;;;;4.05;2.60;;;;;;;24.53;49.60;94747.94;5112803;28;20554;-45
2023/06/29 10:58:23;;;;;;;2.72;2.53;;;;;;;24.44;48.69;94743.28;5112411;28;20221;-47
2023/06/29 11:00:53;;;;;;;3.13;2.38;;;;;;;24.52;49.01;94759.44;5112412;28;20207;-45
2023/06/29 11:03:21;;;;;;;3.30;2.17;;;;;;;24.60;48.96;94757.50;5112146;28;20197;-45
2023/06/29 11:05:49;;;;;;;3.13;2.83;;;;;;;24.56;48.27;94751.91;5112647;28;20177;-46
2023/06/29 11:08:17;;;;;;;3.47;2.67;;;;;;;24.58;48.12;94755.13;5112879;28;20216;-46
2023/06/29 11:10:45;;;;;;;2.60;2.40;;;;;;;24.61;48.24;94748.63;5112069;28;20300;-45
2023/06/29 11:13:12;;;;;;;3.75;2.60;;;;;;;24.64;47.20;94756.03;5112150;28;20213;-44
2023/06/29 11:15:40;;;;;;;3.40;2.70;;;;;;;24.53;47.59;94750.56;5094170;28;20257;-47
2023/06/29 11:18:09;;;;;;;3.13;2.30;;;;;;;24.45;48.74;94756.09;5111987;28;20208;-45
2023/06/29 11:20:39;;;;;;;2.50;2.30;;;;;;;24.40;47.97;94755.19;5111945;28;20189;-43
2023/06/29 11:23:07;;;;;;;3.83;2.63;;;;;;;24.37;48.67;94752.97;5111916;28;20212;-47
2023/06/29 11:25:35;;;;;;;2.92;2.72;;;;;;;24.49;48.59;94746.00;5112110;28;20231;-45
2023/06/29 11:28:03;;;;;;;2.65;2.45;;;;;;;24.55;48.35;94744.31;5111671;28;20224;-45
2023/06/29 11:30:30;;;;;;;5.38;2.60;;;;;;;24.45;47.77;94747.47;5111533;28;20603;-46
2023/06/29 11:32:57;;;;;;;3.95;2.50;;;;;;;24.42;48.23;94742.69;5111823;28;20191;-47